Time;durP1;ratioP1;P1;durP2;ratioP2;P2;SDS_P1;SDS_P2;PMS_P1;PMS_P2;Temp;Humidity;BMP_temperature;BMP_pressure;BME280_temperature;BME280_humidity;BME280_pressure;Samples;Min_cycle;Max_cycle;Signal;HPM_P1;HPM_P2
2023/07/09 00:02:23;;;;;;;11.85;5.80;;;22.50;94.10;;;;;;5106732;28;20031;-78
2023/07/09 00:04:49;;;;;;;12.27;6.43;;;22.40;94.30;;;;;;5091915;28;20494;-80
2023/07/09 00:07:29;;;;;;;16.27;6.65;;;22.40;94.20;;;;;;5109199;28;20063;-81
2023/07/09 00:09:56;;;;;;;13.73;5.95;;;22.40;94.60;;;;;;5106196;28;20537;-76
2023/07/09 00:12:22;;;;;;;10.05;5.90;;;22.40;94.40;;;;;;5109071;28;20083;-73
2023/07/09 00:14:48;;;;;;;14.77;6.72;;;22.30;94.50;;;;;;5109640;28;20082;-78
2023/07/09 00:17:30;;;;;;;8.93;6.13;;;22.30;94.50;;;;;;5091178;28;20064;-80
2023/07/09 00:19:56;;;;;;;10.73;6.72;;;22.20;95.10;;;;;;5109432;28;20052;-80
2023/07/09 00:22:22;;;;;;;10.60;6.28;;;22.20;94.60;;;;;;5111274;28;20058;-81
2023/07/09 00:24:50;;;;;;;11.10;7.10;;;22.10;94.80;;;;;;5113846;28;20534;-74
2023/07/09 00:27:19;;;;;;;14.52;7.03;;;22.20;94.90;;;;;;5111843;28;20046;-79
2023/07/09 00:29:45;;;;;;;10.63;6.53;;;22.10;94.90;;;;;;5110002;28;20040;-76
2023/07/09 00:32:15;;;;;;;11.65;6.63;;;22.10;94.90;;;;;;5113662;28;20039;-74
2023/07/09 00:34:50;;;;;;;12.70;6.10;;;22.10;95.10;;;;;;5111832;28;20047;-77
2023/07/09 00:37:25;;;;;;;10.05;6.55;;;22.10;95.10;;;;;;5108684;28;20096;-77
2023/07/09 00:39:51;;;;;;;12.55;6.40;;;22.10;95.50;;;;;;5112910;28;20039;-75
2023/07/09 00:42:23;;;;;;;11.32;6.50;;;22.00;95.10;;;;;;5112735;28;20470;-76
2023/07/09 00:44:54;;;;;;;18.05;6.40;;;22.00;95.40;;;;;;5113067;28;20058;-78
2023/07/09 00:47:29;;;;;;;9.45;6.38;;;22.00;95.30;;;;;;5113100;28;20787;-81
2023/07/09 00:50:11;;;;;;;12.05;6.35;;;22.00;95.60;;;;;;5112626;28;20048;-81
2023/07/09 00:52:45;;;;;;;10.30;6.57;;;22.00;95.80;;;;;;5107775;28;20050;-78
2023/07/09 00:55:18;;;;;;;10.98;5.72;;;22.00;95.40;;;;;;5109664;28;20089;-76
2023/07/09 00:57:55;;;;;;;11.50;6.05;;;22.00;95.50;;;;;;5113324;28;20445;-79
2023/07/09 01:00:24;;;;;;;12.15;6.07;;;21.90;95.40;;;;;;5109438;28;20055;-80
2023/07/09 01:02:50;;;;;;;9.02;6.13;;;21.90;95.70;;;;;;5111593;28;20036;-75
2023/07/09 01:05:18;;;;;;;16.55;6.75;;;21.90;95.40;;;;;;5112948;28;20092;-78
2023/07/09 01:07:45;;;;;;;11.32;6.90;;;21.90;95.50;;;;;;5094220;28;20047;-74
2023/07/09 01:10:13;;;;;;;9.73;6.65;;;21.90;95.70;;;;;;5110946;28;20051;-73
2023/07/09 01:12:40;;;;;;;18.40;6.72;;;21.90;95.80;;;;;;5111615;28;20393;-78
2023/07/09 01:15:07;;;;;;;9.38;6.65;;;21.80;95.80;;;;;;5110339;28;20061;-73
2023/07/09 01:17:33;;;;;;;10.23;6.55;;;21.80;95.90;;;;;;5111157;28;20039;-77
2023/07/09 01:20:00;;;;;;;8.95;6.25;;;21.70;96.10;;;;;;5112454;28;20040;-76
2023/07/09 01:22:27;;;;;;;8.30;6.13;;;21.70;96.20;;;;;;5110767;28;20055;-78
2023/07/09 01:24:53;;;;;;;13.88;6.72;;;21.60;96.20;;;;;;5112068;28;20048;-80
2023/07/09 01:27:26;;;;;;;12.15;6.35;;;21.60;96.20;;;;;;5112146;28;20410;-79
2023/07/09 01:29:53;;;;;;;12.38;7.55;;;21.50;96.40;;;;;;5112360;28;20048;-75
2023/07/09 01:32:21;;;;;;;12.88;6.50;;;21.50;96.40;;;;;;5110335;28;20760;-77
2023/07/09 01:34:49;;;;;;;12.65;6.72;;;21.40;96.50;;;;;;5108313;28;20514;-77
2023/07/09 01:37:21;;;;;;;11.88;6.93;;;21.40;96.60;;;;;;5112418;28;20075;-80
2023/07/09 01:39:51;;;;;;;12.77;6.63;;;21.30;96.90;;;;;;5111716;28;20048;-78
2023/07/09 01:42:21;;;;;;;8.77;6.53;;;21.30;96.90;;;;;;5112156;28;20044;-77
2023/07/09 01:44:47;;;;;;;10.57;6.35;;;21.30;97.00;;;;;;5110673;28;20055;-79
2023/07/09 01:47:13;;;;;;;10.65;6.35;;;21.20;97.10;;;;;;5112087;28;20039;-80
2023/07/09 01:49:39;;;;;;;13.15;6.75;;;21.20;97.30;;;;;;5111628;28;20506;-80
2023/07/09 01:52:08;;;;;;;13.25;6.85;;;21.10;97.40;;;;;;5110287;28;20547;-80
2023/07/09 01:54:39;;;;;;;11.13;6.07;;;21.00;97.70;;;;;;5106110;28;20054;-74
2023/07/09 01:57:22;;;;;;;13.27;7.20;;;20.90;97.70;;;;;;5107630;28;20048;-72
2023/07/09 01:59:52;;;;;;;9.73;6.60;;;20.90;98.30;;;;;;5109946;28;20040;-73
2023/07/09 02:02:19;;;;;;;9.43;6.70;;;20.80;98.00;;;;;;5110880;28;20039;-74
2023/07/09 02:04:49;;;;;;;11.52;6.88;;;20.70;98.30;;;;;;5110824;28;20589;-77
2023/07/09 02:07:15;;;;;;;9.73;6.30;;;20.70;98.50;;;;;;5111828;28;20051;-77
2023/07/09 02:09:41;;;;;;;11.70;6.90;;;20.60;98.50;;;;;;5109250;28;20048;-77
2023/07/09 02:12:08;;;;;;;8.50;6.20;;;20.60;98.60;;;;;;5110236;28;20047;-80
2023/07/09 02:14:33;;;;;;;14.20;6.38;;;20.50;98.80;;;;;;5109863;28;20044;-74
2023/07/09 02:16:59;;;;;;;10.00;6.20;;;20.50;98.90;;;;;;5110648;28;20051;-77
2023/07/09 02:19:25;;;;;;;11.43;6.93;;;20.50;98.90;;;;;;5110176;28;20523;-77
2023/07/09 02:21:50;;;;;;;9.52;6.68;;;20.40;99.20;;;;;;5112060;28;20043;-74
2023/07/09 02:24:16;;;;;;;10.45;7.00;;;20.40;99.20;;;;;;5109965;28;20102;-76
2023/07/09 02:26:41;;;;;;;13.50;8.18;;;20.40;99.20;;;;;;5109556;28;20517;-76
2023/07/09 02:29:07;;;;;;;11.93;7.25;;;20.40;99.10;;;;;;5093664;28;20031;-79
2023/07/09 02:31:33;;;;;;;9.75;6.45;;;20.30;99.30;;;;;;5110769;28;20036;-80
2023/07/09 02:33:59;;;;;;;10.50;6.70;;;20.30;99.40;;;;;;5110428;28;20379;-79
2023/07/09 02:36:25;;;;;;;9.25;7.28;;;20.30;99.40;;;;;;5110164;28;20184;-78
2023/07/09 02:38:51;;;;;;;11.10;6.53;;;20.30;99.40;;;;;;5110499;28;20155;-76
2023/07/09 02:41:17;;;;;;;12.13;6.90;;;20.30;99.30;;;;;;5111088;28;20040;-72
2023/07/09 02:43:42;;;;;;;10.00;7.22;;;20.20;99.30;;;;;;5110843;28;20040;-78
2023/07/09 02:46:08;;;;;;;11.73;6.80;;;20.30;99.50;;;;;;5111530;28;20040;-77
2023/07/09 02:48:33;;;;;;;14.23;6.47;;;20.20;99.50;;;;;;5109715;28;20056;-73
2023/07/09 02:50:59;;;;;;;12.82;7.25;;;20.20;99.50;;;;;;5111690;28;20043;-75
2023/07/09 02:53:27;;;;;;;11.57;7.05;;;20.20;99.50;;;;;;5111172;28;20048;-75
2023/07/09 02:55:53;;;;;;;10.68;7.00;;;20.20;99.60;;;;;;5109609;28;20060;-74
2023/07/09 02:58:18;;;;;;;9.30;6.40;;;20.20;99.60;;;;;;5110923;28;20391;-74
2023/07/09 03:00:51;;;;;;;11.65;6.88;;;20.20;99.60;;;;;;5111431;28;20047;-78
2023/07/09 03:03:17;;;;;;;11.68;7.00;;;20.20;99.60;;;;;;5110183;28;20098;-73
2023/07/09 03:05:45;;;;;;;11.10;6.82;;;20.20;99.70;;;;;;5102846;28;20044;-73
2023/07/09 03:08:10;;;;;;;14.30;7.13;;;20.20;99.70;;;;;;5109304;28;20047;-78
2023/07/09 03:10:36;;;;;;;13.95;7.07;;;20.20;99.80;;;;;;5111030;28;20061;-77
2023/07/09 03:13:02;;;;;;;9.13;6.60;;;20.10;99.80;;;;;;5109024;28;20047;-75
2023/07/09 03:15:27;;;;;;;11.55;7.00;;;20.10;99.80;;;;;;5110892;28;20464;-78
2023/07/09 03:17:53;;;;;;;10.77;6.75;;;20.10;99.90;;;;;;5110664;28;20118;-73
2023/07/09 03:20:18;;;;;;;13.43;6.63;;;20.10;99.80;;;;;;5109408;28;20048;-78
2023/07/09 03:22:44;;;;;;;14.30;7.00;;;20.10;99.70;;;;;;5110819;28;20036;-78
2023/07/09 03:25:10;;;;;;;14.00;7.10;;;20.10;99.70;;;;;;5110948;28;20123;-77
2023/07/09 03:27:35;;;;;;;9.52;6.50;;;20.10;99.90;;;;;;5108807;28;20130;-79
2023/07/09 03:30:01;;;;;;;9.98;6.05;;;20.00;99.70;;;;;;5110015;28;20139;-74
2023/07/09 03:32:26;;;;;;;10.35;6.55;;;20.00;99.90;;;;;;5110431;28;20043;-78
2023/07/09 03:34:53;;;;;;;9.85;6.57;;;20.00;99.70;;;;;;5109368;28;20122;-78
2023/07/09 03:37:18;;;;;;;10.40;7.00;;;20.00;99.80;;;;;;5110826;28;20108;-77
2023/07/09 03:39:47;;;;;;;13.68;7.28;;;20.00;99.90;;;;;;5110472;28;20433;-73
2023/07/09 03:42:13;;;;;;;10.48;7.00;;;20.00;99.90;;;;;;5109294;28;20047;-79
2023/07/09 03:44:40;;;;;;;11.05;6.50;;;20.00;99.90;;;;;;5110041;28;20039;-79
2023/07/09 03:47:06;;;;;;;10.20;6.60;;;20.00;99.90;;;;;;5110007;28;20047;-76
2023/07/09 03:49:32;;;;;;;10.40;7.10;;;20.00;99.90;;;;;;5109301;28;20482;-74
2023/07/09 03:51:58;;;;;;;11.77;7.00;;;20.00;99.90;;;;;;5110251;28;20050;-79
2023/07/09 03:54:24;;;;;;;9.23;6.70;;;20.00;99.90;;;;;;5108777;28;20051;-78
2023/07/09 03:56:50;;;;;;;9.68;6.07;;;20.00;99.90;;;;;;5109608;28;20070;-73
2023/07/09 03:59:15;;;;;;;10.98;6.50;;;19.90;99.90;;;;;;5088347;28;20578;-77
2023/07/09 04:01:45;;;;;;;16.52;6.57;;;20.00;99.90;;;;;;5109481;28;20842;-76
2023/07/09 04:04:12;;;;;;;10.13;6.15;;;19.90;99.90;;;;;;5110365;28;20049;-76
2023/07/09 04:06:38;;;;;;;12.23;6.43;;;20.00;99.90;;;;;;5109112;28;20102;-76
2023/07/09 04:09:04;;;;;;;11.90;6.43;;;20.00;99.90;;;;;;5108558;28;20494;-74
2023/07/09 04:11:29;;;;;;;9.02;6.50;;;20.00;99.90;;;;;;5109742;28;20075;-76
2023/07/09 04:13:55;;;;;;;13.82;7.15;;;20.00;99.90;;;;;;5108627;28;20055;-76
2023/07/09 04:16:21;;;;;;;11.07;6.88;;;20.10;99.90;;;;;;5108587;28;20479;-77
2023/07/09 04:18:46;;;;;;;10.70;6.45;;;20.10;99.90;;;;;;5109958;28;20032;-78
2023/07/09 04:21:12;;;;;;;13.43;5.68;;;20.20;99.90;;;;;;5110189;28;20044;-77
2023/07/09 04:23:38;;;;;;;11.82;6.15;;;20.10;99.90;;;;;;5109857;28;20036;-74
2023/07/09 04:26:04;;;;;;;8.52;6.25;;;20.20;99.90;;;;;;5109922;28;20063;-80
2023/07/09 04:28:30;;;;;;;9.95;6.57;;;20.20;99.90;;;;;;5110045;28;20070;-79
2023/07/09 04:30:56;;;;;;;9.18;6.53;;;20.20;99.90;;;;;;5109446;28;20478;-73
2023/07/09 04:33:22;;;;;;;11.23;6.82;;;20.20;99.90;;;;;;5109313;28;20036;-77
2023/07/09 04:35:48;;;;;;;10.95;6.72;;;20.30;99.90;;;;;;5108734;28;20487;-74
2023/07/09 04:38:15;;;;;;;10.32;6.72;;;20.40;99.90;;;;;;5108457;28;20035;-75
2023/07/09 04:40:41;;;;;;;11.65;6.50;;;20.40;99.90;;;;;;5108021;28;20502;-75
2023/07/09 04:43:07;;;;;;;8.40;6.07;;;20.50;99.90;;;;;;5090916;28;20075;-75
2023/07/09 04:45:33;;;;;;;14.30;6.47;;;20.50;99.90;;;;;;5108570;28;20051;-73
2023/07/09 04:47:59;;;;;;;8.57;6.20;;;20.50;99.90;;;;;;5109512;28;20050;-73
2023/07/09 04:50:24;;;;;;;11.25;6.70;;;20.60;99.90;;;;;;5108514;28;20039;-78
2023/07/09 04:52:52;;;;;;;9.00;5.93;;;20.60;99.90;;;;;;5110086;28;20044;-76
2023/07/09 04:55:18;;;;;;;12.93;6.80;;;20.70;99.90;;;;;;5108417;28;20418;-79
2023/07/09 04:57:45;;;;;;;11.27;6.28;;;20.70;99.90;;;;;;5109484;28;20043;-77
2023/07/09 05:00:11;;;;;;;8.88;6.88;;;20.80;99.90;;;;;;5109786;28;20413;-79
2023/07/09 05:02:37;;;;;;;8.50;6.68;;;20.80;99.90;;;;;;5107961;28;20047;-78
2023/07/09 05:05:03;;;;;;;11.38;6.53;;;20.80;99.90;;;;;;5109617;28;20040;-78
2023/07/09 05:07:28;;;;;;;9.07;6.57;;;20.90;99.90;;;;;;5109402;28;20055;-79
2023/07/09 05:09:54;;;;;;;8.90;6.60;;;21.00;99.90;;;;;;5112020;28;20062;-73
2023/07/09 05:12:20;;;;;;;11.73;6.15;;;20.90;99.90;;;;;;5113498;28;20070;-76
2023/07/09 05:14:46;;;;;;;8.82;6.25;;;21.10;99.90;;;;;;5113608;28;20080;-72
2023/07/09 05:17:12;;;;;;;11.23;6.28;;;21.10;99.90;;;;;;5112827;28;20039;-73
2023/07/09 05:19:38;;;;;;;11.30;6.38;;;21.20;99.90;;;;;;5113063;28;20046;-75
2023/07/09 05:22:04;;;;;;;10.20;6.78;;;21.30;99.90;;;;;;5112076;28;20039;-79
2023/07/09 05:24:30;;;;;;;10.63;6.97;;;21.40;99.90;;;;;;5113240;28;20036;-78
2023/07/09 05:26:56;;;;;;;12.15;6.68;;;21.50;99.90;;;;;;5111831;28;20054;-73
2023/07/09 05:29:22;;;;;;;12.13;6.70;;;21.60;99.90;;;;;;5113204;28;20387;-74
2023/07/09 05:31:48;;;;;;;10.25;6.07;;;21.70;99.90;;;;;;5112934;28;20050;-75
2023/07/09 05:34:13;;;;;;;10.93;6.93;;;21.80;99.90;;;;;;5112893;28;20069;-73
2023/07/09 05:36:39;;;;;;;13.05;6.43;;;21.90;99.90;;;;;;5111491;28;20039;-74
2023/07/09 05:39:05;;;;;;;9.82;6.38;;;21.90;99.90;;;;;;5111019;28;20119;-73
2023/07/09 05:41:30;;;;;;;14.57;7.53;;;22.00;99.90;;;;;;5094598;28;20135;-77
2023/07/09 05:43:56;;;;;;;9.63;6.25;;;22.10;99.90;;;;;;5111592;28;20047;-77
2023/07/09 05:46:23;;;;;;;11.60;6.68;;;22.20;99.90;;;;;;5111702;28;20031;-73
2023/07/09 05:48:48;;;;;;;10.73;6.53;;;22.30;99.90;;;;;;5112108;28;20051;-73
2023/07/09 05:51:14;;;;;;;12.90;6.82;;;22.30;99.90;;;;;;5145712;27;20084;-76
2023/07/09 05:53:40;;;;;;;8.98;6.72;;;22.40;99.90;;;;;;5112420;28;20756;-79
2023/07/09 05:56:06;;;;;;;8.60;5.95;;;22.50;99.90;;;;;;5112696;28;20419;-75
2023/07/09 05:58:32;;;;;;;9.85;6.75;;;22.50;99.90;;;;;;5112739;27;20036;-75
2023/07/09 06:00:57;;;;;;;12.35;6.82;;;22.60;99.90;;;;;;5112206;28;20043;-77
2023/07/09 06:03:26;;;;;;;10.70;7.10;;;22.60;99.90;;;;;;5110602;28;20052;-76
2023/07/09 06:05:52;;;;;;;20.83;6.95;;;22.60;99.90;;;;;;5112027;28;20046;-72
2023/07/09 06:08:21;;;;;;;12.95;7.50;;;22.70;99.90;;;;;;5110933;28;20047;-77
2023/07/09 06:10:51;;;;;;;10.45;7.10;;;22.70;99.90;;;;;;5103799;28;20036;-78
2023/07/09 06:13:18;;;;;;;13.60;6.82;;;22.80;99.90;;;;;;5112468;28;20035;-74
2023/07/09 06:15:43;;;;;;;12.10;6.93;;;22.90;99.90;;;;;;5112484;28;20039;-78
2023/07/09 06:18:09;;;;;;;13.75;6.97;;;22.90;99.90;;;;;;5112195;28;20184;-78
2023/07/09 06:20:35;;;;;;;12.02;7.18;;;23.00;99.90;;;;;;5110429;28;20042;-76
2023/07/09 06:23:00;;;;;;;11.30;7.45;;;23.00;99.90;;;;;;5112197;28;20479;-77
2023/07/09 06:25:26;;;;;;;11.45;6.78;;;23.10;99.90;;;;;;5112262;28;20076;-74
2023/07/09 06:27:51;;;;;;;11.25;6.70;;;23.20;99.90;;;;;;5112417;28;20130;-75
2023/07/09 06:30:19;;;;;;;9.73;7.40;;;23.40;99.90;;;;;;5112482;28;20040;-73
2023/07/09 06:32:45;;;;;;;13.10;7.00;;;23.50;99.90;;;;;;5111701;28;20122;-76
2023/07/09 06:35:11;;;;;;;13.60;7.57;;;23.60;99.90;;;;;;5101557;28;20169;-77
2023/07/09 06:37:36;;;;;;;13.02;7.47;;;23.70;99.90;;;;;;5111558;28;20039;-73
2023/07/09 06:40:02;;;;;;;12.23;7.15;;;23.90;99.90;;;;;;5111825;28;20529;-74
2023/07/09 06:42:28;;;;;;;16.02;7.95;;;24.00;99.90;;;;;;5111414;28;20043;-75
2023/07/09 06:44:54;;;;;;;10.32;6.90;;;24.20;99.90;;;;;;5110251;28;20036;-76
2023/07/09 06:47:19;;;;;;;9.75;6.82;;;24.30;99.90;;;;;;5110017;28;20051;-78
2023/07/09 06:49:45;;;;;;;10.40;6.30;;;24.40;99.90;;;;;;5111059;28;20062;-78
2023/07/09 06:52:11;;;;;;;12.43;6.63;;;24.60;99.90;;;;;;5111009;28;20055;-76
2023/07/09 06:54:36;;;;;;;12.18;7.03;;;24.80;99.90;;;;;;5111071;28;20101;-77
2023/07/09 06:57:02;;;;;;;10.55;7.43;;;25.00;99.90;;;;;;5111271;28;20050;-76
2023/07/09 06:59:28;;;;;;;13.48;7.28;;;25.10;99.90;;;;;;5111063;28;20053;-76
2023/07/09 07:01:54;;;;;;;9.10;6.55;;;25.30;99.90;;;;;;5110742;28;20074;-73
2023/07/09 07:04:19;;;;;;;9.13;6.03;;;25.50;99.90;;;;;;5109818;28;20055;-74
2023/07/09 07:06:45;;;;;;;10.70;7.03;;;25.80;99.90;;;;;;5109206;28;20089;-74
2023/07/09 07:09:10;;;;;;;13.52;7.18;;;26.00;99.90;;;;;;5111139;28;20075;-76
2023/07/09 07:11:36;;;;;;;17.58;7.88;;;26.30;99.90;;;;;;5111005;28;20101;-73
2023/07/09 07:14:02;;;;;;;13.18;6.78;;;26.50;99.90;;;;;;5110996;28;20394;-73
2023/07/09 07:16:27;;;;;;;17.17;7.60;;;26.60;99.90;;;;;;5110941;28;20040;-74
2023/07/09 07:18:53;;;;;;;9.48;6.50;;;26.70;99.90;;;;;;5102473;28;20754;-71
2023/07/09 07:21:18;;;;;;;15.65;6.95;;;26.80;99.90;;;;;;5109342;28;20077;-74
2023/07/09 07:23:44;;;;;;;24.42;8.27;;;26.90;99.80;;;;;;5110263;28;20027;-74
2023/07/09 07:26:10;;;;;;;14.88;7.53;;;27.00;99.90;;;;;;5110495;28;20039;-75
2023/07/09 07:28:36;;;;;;;16.17;6.28;;;27.10;99.70;;;;;;5110541;28;20043;-74
2023/07/09 07:31:05;;;;;;;12.50;7.55;;;27.20;99.70;;;;;;5109700;28;20491;-74
2023/07/09 07:33:30;;;;;;;13.18;7.03;;;27.20;99.40;;;;;;5108794;28;20044;-74
2023/07/09 07:35:56;;;;;;;13.50;7.72;;;27.30;99.50;;;;;;5110113;28;20047;-74
2023/07/09 07:38:22;;;;;;;13.38;6.60;;;27.40;99.60;;;;;;5109071;28;20035;-74
2023/07/09 07:40:48;;;;;;;14.18;8.35;;;27.50;99.70;;;;;;5109160;28;20451;-74
2023/07/09 07:43:13;;;;;;;13.98;7.75;;;27.60;99.50;;;;;;5108923;28;20047;-74
2023/07/09 07:45:43;;;;;;;13.90;7.45;;;27.70;99.50;;;;;;5109209;28;20569;-74
2023/07/09 07:48:09;;;;;;;12.00;7.65;;;27.80;98.90;;;;;;5110333;28;20043;-74
2023/07/09 07:50:35;;;;;;;18.50;7.78;;;27.90;99.00;;;;;;5110204;28;20255;-74
2023/07/09 07:53:01;;;;;;;15.52;8.07;;;27.90;98.70;;;;;;5110142;28;20075;-75
2023/07/09 07:55:27;;;;;;;16.00;7.57;;;28.00;98.70;;;;;;5109548;28;20079;-75
2023/07/09 07:57:53;;;;;;;13.80;7.50;;;28.10;98.70;;;;;;5109214;28;20075;-72
2023/07/09 08:00:19;;;;;;;14.25;7.85;;;28.30;98.70;;;;;;5108855;28;20090;-73
2023/07/09 08:02:45;;;;;;;12.10;8.50;;;28.40;99.00;;;;;;5109788;28;20060;-72
2023/07/09 08:05:10;;;;;;;14.98;8.50;;;28.50;98.90;;;;;;5110173;28;20112;-73
2023/07/09 08:07:36;;;;;;;23.35;9.30;;;28.50;98.80;;;;;;5109632;28;20036;-73
2023/07/09 08:10:02;;;;;;;14.07;8.48;;;28.70;98.70;;;;;;5108472;28;20093;-72
2023/07/09 08:12:27;;;;;;;13.75;9.18;;;28.90;98.90;;;;;;5109409;28;20070;-75
2023/07/09 08:14:53;;;;;;;17.58;8.70;;;28.90;98.70;;;;;;5109918;28;20048;-73
2023/07/09 08:17:19;;;;;;;14.52;10.13;;;29.10;98.70;;;;;;5087652;28;20063;-72
2023/07/09 08:19:50;;;;;;;16.38;9.25;;;29.10;98.60;;;;;;5108676;28;20501;-72
2023/07/09 08:22:16;;;;;;;16.88;8.95;;;29.30;98.40;;;;;;5109802;28;20054;-73
2023/07/09 08:24:42;;;;;;;16.13;9.32;;;29.40;98.50;;;;;;5109476;28;20035;-73
2023/07/09 08:27:09;;;;;;;14.73;8.93;;;29.50;98.40;;;;;;5109736;28;20042;-74
2023/07/09 08:29:35;;;;;;;18.88;9.82;;;29.50;98.60;;;;;;5110055;28;20042;-72
2023/07/09 08:32:02;;;;;;;27.25;9.68;;;29.40;98.50;;;;;;5109913;28;20043;-72
2023/07/09 08:34:28;;;;;;;15.88;8.85;;;29.60;98.50;;;;;;5109705;28;20043;-78
2023/07/09 08:36:53;;;;;;;15.07;8.77;;;29.70;98.50;;;;;;5109549;28;20448;-72
2023/07/09 08:39:19;;;;;;;15.27;8.80;;;29.90;98.50;;;;;;5109641;28;20057;-75
2023/07/09 08:41:51;;;;;;;13.52;9.75;;;30.00;98.40;;;;;;5109002;28;20468;-72
2023/07/09 08:44:48;;;;;;;12.30;9.95;;;30.00;98.20;;;;;;5105335;28;20046;-73
2023/07/09 08:47:35;;;;;;;11.77;8.52;;;30.00;97.40;;;;;;5112126;28;20052;-72
2023/07/09 08:50:08;;;;;;;15.35;10.48;;;30.20;98.30;;;;;;5112964;28;20048;-70
2023/07/09 08:52:37;;;;;;;16.98;9.95;;;30.10;97.50;;;;;;5114095;27;20050;-74
2023/07/09 08:55:28;;;;;;;13.43;9.73;;;30.30;97.90;;;;;;5113012;28;20055;-72
2023/07/09 08:58:03;;;;;;;15.50;10.50;;;30.40;98.10;;;;;;5111895;28;20097;-75
2023/07/09 09:00:34;;;;;;;13.32;9.57;;;30.30;97.40;;;;;;5113773;28;20066;-76
2023/07/09 09:03:21;;;;;;;13.98;9.43;;;30.60;97.90;;;;;;5111745;28;20036;-74
2023/07/09 09:05:49;;;;;;;16.05;9.95;;;30.80;97.90;;;;;;5103967;28;20499;-77
2023/07/09 09:08:39;;;;;;;15.63;9.70;;;30.90;97.80;;;;;;5113602;28;20039;-76
2023/07/09 09:11:14;;;;;;;13.88;10.07;;;30.80;97.20;;;;;;5106400;28;20118;-74
2023/07/09 09:13:40;;;;;;;15.88;10.77;;;30.70;97.10;;;;;;5112832;28;20394;-72
2023/07/09 09:16:17;;;;;;;16.05;10.25;;;30.80;97.00;;;;;;5113323;28;20158;-73
2023/07/09 09:18:47;;;;;;;15.45;9.75;;;30.70;97.20;;;;;;5109962;28;20051;-72
2023/07/09 09:21:19;;;;;;;16.70;10.73;;;30.80;97.50;;;;;;5112506;28;20055;-75
2023/07/09 09:23:52;;;;;;;12.52;9.15;;;30.70;97.30;;;;;;5111555;28;20482;-73
2023/07/09 09:26:24;;;;;;;18.40;11.15;;;30.70;97.50;;;;;;5111382;28;20082;-73
2023/07/09 09:28:50;;;;;;;20.05;9.90;;;30.70;96.80;;;;;;5113131;28;20149;-72
2023/07/09 09:31:17;;;;;;;16.67;10.25;;;30.80;97.40;;;;;;5113030;28;20108;-75
2023/07/09 09:33:48;;;;;;;16.00;9.40;;;30.70;97.40;;;;;;5112445;28;20058;-76
2023/07/09 09:36:20;;;;;;;14.45;9.95;;;30.90;97.80;;;;;;5109749;28;20042;-74
2023/07/09 09:38:46;;;;;;;20.40;9.55;;;31.00;97.10;;;;;;5113351;28;20048;-82
2023/07/09 09:41:14;;;;;;;11.75;9.00;;;31.20;97.40;;;;;;5111004;28;20074;-79
2023/07/09 09:43:43;;;;;;;12.43;8.80;;;31.50;97.40;;;;;;5112892;28;20047;-75
2023/07/09 09:46:16;;;;;;;11.52;9.13;;;31.70;97.10;;;;;;5112430;28;20046;-73
2023/07/09 09:48:46;;;;;;;17.45;9.85;;;31.80;97.30;;;;;;5112690;28;20122;-72
2023/07/09 09:51:13;;;;;;;14.35;9.48;;;31.90;96.90;;;;;;5112602;28;20055;-73
2023/07/09 09:53:45;;;;;;;15.40;10.90;;;32.10;97.00;;;;;;5110975;28;20131;-73
2023/07/09 09:56:20;;;;;;;11.90;9.13;;;32.00;96.50;;;;;;5112176;28;20051;-73
2023/07/09 09:58:46;;;;;;;13.02;9.18;;;32.10;96.00;;;;;;5111374;28;20084;-72
2023/07/09 10:01:15;;;;;;;16.25;9.75;;;32.00;96.40;;;;;;5110897;28;20056;-74
2023/07/09 10:03:41;;;;;;;13.20;8.43;;;32.10;96.00;;;;;;5111973;28;20528;-73
2023/07/09 10:06:15;;;;;;;15.90;8.50;;;32.30;96.30;;;;;;5112354;28;20051;-73
2023/07/09 10:09:02;;;;;;;13.93;9.48;;;32.40;95.70;;;;;;5102304;28;20043;-71
2023/07/09 10:11:39;;;;;;;18.88;8.35;;;32.50;95.60;;;;;;5111728;28;20043;-73
2023/07/09 10:14:25;;;;;;;13.50;9.63;;;32.70;96.20;;;;;;5111971;28;20047;-73
2023/07/09 10:16:58;;;;;;;13.18;8.35;;;32.60;94.80;;;;;;5136269;27;20055;-72
2023/07/09 10:19:43;;;;;;;11.65;8.70;;;32.70;95.90;;;;;;5111654;28;20126;-74
2023/07/09 10:22:39;;;;;;;13.20;7.70;;;32.80;95.10;;;;;;5104104;28;20077;-73
2023/07/09 10:25:20;;;;;;;10.88;6.68;;;32.80;94.60;;;;;;5086235;28;20126;-72
2023/07/09 10:27:45;;;;;;;12.02;8.40;;;33.00;95.00;;;;;;5111134;28;20050;-72
2023/07/09 10:30:33;;;;;;;12.43;8.35;;;33.00;95.40;;;;;;5110266;28;20039;-74
2023/07/09 10:33:07;;;;;;;12.43;7.85;;;33.00;95.00;;;;;;5110149;28;20048;-72
2023/07/09 10:35:51;;;;;;;16.00;8.18;;;33.00;94.60;;;;;;5110233;28;20478;-73
2023/07/09 10:38:45;;;;;;;11.85;8.63;;;33.10;95.20;;;;;;5102430;28;20119;-71
2023/07/09 10:41:12;;;;;;;15.25;8.02;;;33.20;94.30;;;;;;5111427;28;20044;-72
2023/07/09 10:43:47;;;;;;;12.65;8.30;;;33.10;95.00;;;;;;5111388;28;20042;-71
2023/07/09 10:46:35;;;;;;;12.57;7.32;;;33.20;95.00;;;;;;5110036;28;20107;-69
2023/07/09 10:49:06;;;;;;;12.77;7.57;;;33.30;94.70;;;;;;5111020;28;20040;-72
2023/07/09 10:51:48;;;;;;;12.15;7.22;;;33.30;95.10;;;;;;5085518;28;20048;-71
2023/07/09 10:54:20;;;;;;;12.30;8.07;;;33.40;95.00;;;;;;5109808;28;20087;-72
2023/07/09 10:56:51;;;;;;;11.02;8.55;;;33.40;94.30;;;;;;5111337;28;20131;-72
2023/07/09 10:59:37;;;;;;;11.32;7.43;;;33.50;95.00;;;;;;5109054;28;20081;-72
2023/07/09 11:02:16;;;;;;;14.75;7.88;;;33.70;95.00;;;;;;5109773;28;20495;-72
2023/07/09 11:04:52;;;;;;;16.15;7.63;;;33.70;94.40;;;;;;5102296;28;20043;-71
2023/07/09 11:07:41;;;;;;;12.48;8.07;;;33.70;94.60;;;;;;5111214;28;20173;-71
2023/07/09 11:10:24;;;;;;;11.02;7.00;;;33.80;94.20;;;;;;5109718;28;20057;-72
2023/07/09 11:13:10;;;;;;;14.98;7.25;;;33.90;94.70;;;;;;5102064;28;20116;-71
2023/07/09 11:15:40;;;;;;;12.00;7.35;;;34.00;94.20;;;;;;5110691;28;20124;-73
2023/07/09 11:18:13;;;;;;;12.23;7.15;;;34.00;94.30;;;;;;5109506;28;20083;-73
2023/07/09 11:20:45;;;;;;;7.88;6.47;;;34.00;94.40;;;;;;5110338;28;20089;-69
2023/07/09 11:23:22;;;;;;;12.07;6.40;;;34.20;94.50;;;;;;5110974;28;20039;-74
2023/07/09 11:26:26;;;;;;;10.90;6.15;;;34.20;93.80;;;;;;5109881;28;20048;-76
2023/07/09 11:29:15;;;;;;;11.32;6.32;;;34.20;93.60;;;;;;5106800;28;20059;-72
2023/07/09 11:31:46;;;;;;;10.00;6.10;;;34.30;93.90;;;;;;5109036;28;20039;-71
2023/07/09 11:34:17;;;;;;;11.38;6.43;;;34.30;94.10;;;;;;5110560;28;20051;-75
2023/07/09 11:36:55;;;;;;;12.32;7.13;;;34.20;93.80;;;;;;5110657;28;20105;-76
2023/07/09 11:39:39;;;;;;;9.40;5.88;;;34.30;93.30;;;;;;5103581;28;20036;-76
2023/07/09 11:42:27;;;;;;;11.63;5.85;;;34.10;93.20;;;;;;5110228;28;20054;-73
2023/07/09 11:45:00;;;;;;;8.48;5.35;;;34.10;93.50;;;;;;5109159;28;20043;-73
2023/07/09 11:47:49;;;;;;;10.60;6.82;;;34.30;93.40;;;;;;5102835;28;20043;-74
2023/07/09 11:50:25;;;;;;;9.50;6.45;;;34.30;93.40;;;;;;5109776;28;20190;-74
2023/07/09 11:53:16;;;;;;;12.10;6.85;;;34.30;93.40;;;;;;5110406;28;20039;-73
2023/07/09 11:55:46;;;;;;;9.70;6.20;;;34.30;93.20;;;;;;5102407;28;20569;-71
2023/07/09 11:58:19;;;;;;;14.27;6.57;;;34.50;93.60;;;;;;5108925;28;20112;-74
2023/07/09 12:00:46;;;;;;;12.52;5.80;;;34.50;93.70;;;;;;5108457;28;20562;-71
2023/07/09 12:03:18;;;;;;;9.88;6.47;;;34.30;93.60;;;;;;5108753;28;20054;-72
2023/07/09 12:05:53;;;;;;;11.35;6.70;;;34.30;93.50;;;;;;5106277;28;20107;-73
2023/07/09 12:08:27;;;;;;;13.40;6.70;;;34.50;93.50;;;;;;5109800;28;20063;-71
2023/07/09 12:10:53;;;;;;;10.60;5.47;;;34.60;93.60;;;;;;5108776;28;20044;-72
2023/07/09 12:13:19;;;;;;;8.30;5.85;;;34.80;93.70;;;;;;5109470;28;20482;-70
2023/07/09 12:15:44;;;;;;;11.48;6.43;;;34.90;93.70;;;;;;5108350;28;20051;-71
2023/07/09 12:18:13;;;;;;;9.07;5.57;;;34.90;93.50;;;;;;5109613;28;20043;-72
2023/07/09 12:20:39;;;;;;;9.85;6.13;;;35.00;92.90;;;;;;5109738;28;20092;-74
2023/07/09 12:23:18;;;;;;;8.82;5.78;;;35.00;92.70;;;;;;5108422;28;20066;-75
2023/07/09 12:25:48;;;;;;;11.52;5.68;;;35.00;91.60;;;;;;5108024;28;20550;-74
2023/07/09 12:28:15;;;;;;;10.02;5.55;;;35.00;92.50;;;;;;5110099;28;20047;-72
2023/07/09 12:30:46;;;;;;;9.55;5.82;;;34.90;92.30;;;;;;5108716;28;20574;-72
2023/07/09 12:33:17;;;;;;;10.38;5.50;;;34.70;92.00;;;;;;5108481;28;20042;-77
2023/07/09 12:35:42;;;;;;;10.80;6.75;;;34.80;92.00;;;;;;5109987;28;20058;-72
2023/07/09 12:38:22;;;;;;;12.65;5.93;;;34.70;92.30;;;;;;5107554;28;20059;-73
2023/07/09 12:40:50;;;;;;;10.55;6.43;;;34.90;92.00;;;;;;5109755;28;20402;-73
2023/07/09 12:43:24;;;;;;;9.57;6.57;;;34.90;92.20;;;;;;5101406;28;20104;-71
2023/07/09 12:45:50;;;;;;;11.75;5.40;;;34.80;92.10;;;;;;5091269;28;20052;-69
2023/07/09 12:48:16;;;;;;;8.35;5.63;;;34.90;92.30;;;;;;5109085;28;20056;-73
2023/07/09 12:50:49;;;;;;;10.18;5.88;;;34.90;92.10;;;;;;5109708;28;20466;-73